TFM - Tactical Decision Aid
ID: Runway Winds: CIG/VIS Threshold:

KDFW - Dallas-Ft Worth Intl, TX, US

Updated at: 1212 UTC 25 Jun 2019
Latest TAF at: 1131 UTC 25 Jun 2019

TAF Board

Time1153Z 25/13Z 25/14Z 25/15Z 25/16Z 25/17Z 25/18Z 25/19Z 25/20Z 25/21Z 25/22Z 25/23Z 26/00Z 26/01Z>>
Type OBS PRVL PRVL PRVL PRVL PRVL PRVL PRVL PRVL PRVL PRVL PRVL PRVL PRVL
VIS 10 >6 >6 >6 >6 >6 >6 >6 >6 >6 >6 >6 >6 >6
CIG 300 250 250 150 150 150 150 150 150 70 70 70 300 300
Cover BKN OVC OVC BKN BKN BKN BKN BKN BKN BKN BKN BKN BKN BKN
FltCat VFR VFR VFR VFR VFR VFR VFR VFR VFR VFR VFR VFR VFR VFR
WX -- -- -- -- -- -- -- -- -- VCTS VCTS VCTS -- --
WDir 140 140 140 170 170 170 170 170 170 180 180 180 150 150
WSpd 8 6 6 9 9 9 9 9 9 12 12 12 11 11
WGst -- -- -- -- -- -- -- -- -- -- -- -- -- --

TDA Impact Legend

  None Marginal Slight Moderate High
Visibility (sm) >5 3≤X≤5 1≤X<3 0.5≤X<1 <0.5
Ceiling (100 ft) >30 10≤X≤30 4≤X<10 2≤X<4 <2
Wind Speed (kt) <15 15≤X<25 25≤X<30 ≥30
Wind Gust (kt) <15 15≤X<25 25≤X<35 ≥35
Weather No Wx Reported VCTS -TS,-FZRA TS,FZRA +TS,+FZRA
TAF
KDFW 251131Z 2512/2618 14006KT P6SM FEW010 OVC250
  TEMPO 2512/2513 BKN005
  FM251500 17009KT P6SM SCT025 SCT060 BKN150
  FM252100 18012KT P6SM VCTS BKN070CB
  FM260000 15011KT P6SM SCT090 BKN300


METAR
KDFW 251153Z 14008KT 10SM FEW008 SCT160 BKN300 22/21 A2993 RMK AO2 SLP125 T02220206 10233 20222 53019
KDFW 251053Z 14005KT 10SM FEW008 SCT160 BKN250 BKN300 23/21 A2991 RMK AO2 SLP120 T02280211
KDFW 250953Z 10005KT 10SM SCT007 BKN160 OVC250 23/22 A2988 RMK AO2 SLP108 T02280217
KDFW 250853Z 11005KT 10SM FEW008 BKN160 OVC250 23/21 A2987 RMK AO2 SLP105 T02280211 56015
KDFW 250843Z 14007KT 10SM FEW008 BKN200 OVC250 23/21 A2987 RMK AO2 T02280211

Radar Display
Forecast Discussion